Flight Track Log - Related Links

Times and Time Zones

All times are in EDT time to prevent confusion due to time zone crossing. See the SKW4720 flight status page for this flight to view local times or setup timezone preferences in your user account.

Time Position Orientation Groundspeed Altitude Reporting Facility
EDT Latitude Longitude Course Direction KTS MPH feet Rate Location/Type
Tue 04:08:08 PM 33.9333 -118.5000 256° West 225 259 4,300  Level Southern California TRACON
Tue 04:09:08 PM 33.9167 -118.5833 263° West 253 291 7,800 3,046 Climbing Southern California TRACON
Tue 04:10:18 PM 33.9061 -118.6892 261° West 297 342 10,900 2,862 Climbing Los Angeles Center
Tue 04:11:18 PM 33.8936 -118.7864 266° West 297 342 14,000 3,100 Climbing Los Angeles Center
Tue 04:12:18 PM 33.8872 -118.8911 305° West 307 353 17,100 2,650 Climbing Los Angeles Center
Tue 04:13:18 PM 33.9453 -118.9908 313° West 307 353 19,300 2,000 Climbing Los Angeles Center
Tue 04:14:18 PM 34.0142 -119.0808 310° West 327 376 21,100 1,900 Climbing Los Angeles Center
Tue 04:15:18 PM 34.0847 -119.1811 310° West 358 412 23,100 2,000 Climbing Los Angeles Center
Tue 04:16:18 PM 34.1572 -119.2842 312° West 385 443 25,100 2,100 Climbing Los Angeles Center
Tue 04:17:18 PM 34.2317 -119.3850 310° West 398 458 27,300 2,150 Climbing Los Angeles Center
Tue 04:18:18 PM 34.3061 -119.4908 311° West 404 465 29,400 1,900 Climbing Los Angeles Center
Tue 04:19:18 PM 34.3725 -119.5842 309° West 409 471 31,100 2,150 Climbing Los Angeles Center
Tue 04:20:18 PM 34.4425 -119.6878 311° West 409 471 33,700 2,350 Climbing Los Angeles Center
Tue 04:21:18 PM 34.5125 -119.7842 318° Northwest 402 463 35,800 1,400 Climbing Los Angeles Center
Tue 04:22:18 PM 34.5956 -119.8736 322° Northwest 394 453 36,500 650 Climbing Los Angeles Center
Tue 04:23:18 PM 34.6847 -119.9583 317° Northwest 399 459 37,100 750 Climbing Los Angeles Center
Tue 04:24:18 PM 34.7714 -120.0561 318° Northwest 410 472 38,000 450 Climbing Los Angeles Center
Tue 04:25:18 PM 34.8639 -120.1567 318° Northwest 429 494 38,000  Level Los Angeles Center
Tue 04:26:18 PM 34.9586 -120.2600 317° Northwest 450 518 38,000  Level Los Angeles Center
Tue 04:28:03 PM 35.1231 -120.4456 317° Northwest 430 495 38,000  Level Oakland Center
Tue 04:29:03 PM 35.2089 -120.5442 318° Northwest 423 487 38,000 -50 Level Oakland Center
Tue 04:30:03 PM 35.2969 -120.6428 317° Northwest 423 487 37,900  Descending Oakland Center
Tue 04:31:03 PM 35.3825 -120.7394 319° Northwest 423 487 38,000 50 Climbing Oakland Center
Tue 04:32:03 PM 35.4600 -120.8233 317° Northwest 423 487 38,000  Level Oakland Center
Tue 04:33:03 PM 35.5433 -120.9175 319° Northwest 423 487 38,000  Level Oakland Center
Tue 04:34:03 PM 35.6289 -121.0094 316° Northwest 423 487 38,000 -50 Level Oakland Center
Tue 04:35:03 PM 35.7122 -121.1092 318° Northwest 418 481 37,900  Descending Oakland Center
Tue 04:36:03 PM 35.7978 -121.2039 317° Northwest 418 481 38,000 50 Climbing Oakland Center
Tue 04:37:04 PM 35.8831 -121.3017 317° Northwest 418 481 38,000 -350 Level Oakland Center
Tue 04:38:03 PM 35.9703 -121.4019 318° Northwest 423 487 37,300 -1,714 Descending Oakland Center
Tue 04:39:03 PM 36.0594 -121.5000 316° Northwest 423 487 34,600 -2,650 Descending Oakland Center
Tue 04:40:03 PM 36.1425 -121.5983 321° Northwest 423 487 32,000 -2,678 Descending Oakland Center
Tue 04:41:04 PM 36.2339 -121.6892 325° Northwest 423 487 29,200 -2,777 Descending Oakland Center
Tue 04:42:04 PM 36.3314 -121.7728 324° Northwest 423 487 26,400 -2,975 Descending Oakland Center
Tue 04:43:03 PM 36.4328 -121.8639 341° North 416 479 23,300 -2,723 Descending Oakland Center
Tue 04:44:03 PM 36.5408 -121.9092 346° North 400 460 21,000 -1,650 Descending Oakland Center
Tue 04:45:03 PM 36.6469 -121.9417 355° North 400 460 20,000 -990 Descending Oakland Center
Tue 04:45:40 PM 36.7167 -121.9500 345° North 375 432 19,400 -1,837 Descending Northern Cal TRACON
Tue 04:46:41 PM 36.8167 -121.9833 345° North 373 429 17,000 -2,529 Descending Northern Cal TRACON
Tue 04:47:41 PM 36.9167 -122.0167 352° North 372 428 14,300 -2,430 Descending Northern Cal TRACON
Tue 04:48:42 PM 37.0167 -122.0333 345° North 362 417 12,100 -1,636 Descending Northern Cal TRACON
Tue 04:49:42 PM 37.1167 -122.0667 345° North 301 346 11,000 -1,043 Descending Northern Cal TRACON
Tue 04:50:37 PM 37.1667 -122.0833 351° North 257 296 10,100 -496 Descending Northern Cal TRACON
Tue 04:51:43 PM 37.2500 -122.1000 349° North 262 302 10,000 -567 Descending Northern Cal TRACON
Tue 04:52:44 PM 37.3167 -122.1167 360° North 259 298 8,900 -1,339 Descending Northern Cal TRACON
Tue 04:53:44 PM 37.4000 -122.1167 360° North 248 285 7,300 -1,700 Descending Northern Cal TRACON
Tue 04:54:44 PM 37.4500 -122.1167 332° Northwest 229 264 5,500 -1,500 Descending Northern Cal TRACON
Tue 04:55:44 PM 37.5000 -122.1500 322° Northwest 197 227 4,300 -1,252 Descending Northern Cal TRACON
Tue 04:56:39 PM 37.5500 -122.2000 288° West 196 226 3,100 -1,220 Descending Northern Cal TRACON
Tue 04:57:47 PM 37.5667 -122.2667 293° West 188 216 1,800 -1,039 Descending Northern Cal TRACON
Tue 04:58:46 PM 37.5833 -122.3167 302° West 141 162 900 -796 Descending Northern Cal TRACON
Tue 04:59:40 PM 37.6000 -122.3500 302° West 128 147 300 -667 Descending Northern Cal TRACON

Login

Don't have an account? Register now (free) for customized features, flight alerts, and more!